sensor_id;sensor_type;location;lat;lon;timestamp;pressure;altitude;pressure_sealevel;temperature;humidity
58955;BME280;45815;52.334;5.024;2024-02-28T00:02:23;102014.22;;;4.98;100.00
58955;BME280;45815;52.334;5.024;2024-02-28T00:04:48;102021.75;;;4.93;100.00
58955;BME280;45815;52.334;5.024;2024-02-28T00:07:14;102019.84;;;4.91;100.00
58955;BME280;45815;52.334;5.024;2024-02-28T00:09:39;102017.16;;;4.89;100.00
58955;BME280;45815;52.334;5.024;2024-02-28T00:12:05;102022.16;;;4.86;100.00
58955;BME280;45815;52.334;5.024;2024-02-28T00:14:30;102014.19;;;4.83;100.00
58955;BME280;45815;52.334;5.024;2024-02-28T00:16:55;102013.97;;;4.80;100.00
58955;BME280;45815;52.334;5.024;2024-02-28T00:19:21;102011.91;;;4.74;100.00
58955;BME280;45815;52.334;5.024;2024-02-28T00:21:47;101994.75;;;4.63;100.00
58955;BME280;45815;52.334;5.024;2024-02-28T00:24:13;102005.53;;;4.69;100.00
58955;BME280;45815;52.334;5.024;2024-02-28T00:26:42;102011.34;;;4.65;100.00
58955;BME280;45815;52.334;5.024;2024-02-28T00:29:08;102014.75;;;4.64;100.00
58955;BME280;45815;52.334;5.024;2024-02-28T00:31:33;102011.94;;;4.61;100.00
58955;BME280;45815;52.334;5.024;2024-02-28T00:33:59;102010.06;;;4.58;100.00
58955;BME280;45815;52.334;5.024;2024-02-28T00:36:24;102005.50;;;4.54;100.00
58955;BME280;45815;52.334;5.024;2024-02-28T00:38:50;102006.28;;;4.53;100.00
58955;BME280;45815;52.334;5.024;2024-02-28T00:41:15;102002.63;;;4.50;100.00
58955;BME280;45815;52.334;5.024;2024-02-28T00:43:40;101995.72;;;4.50;100.00
58955;BME280;45815;52.334;5.024;2024-02-28T00:46:06;101996.59;;;4.51;100.00
58955;BME280;45815;52.334;5.024;2024-02-28T00:48:36;102000.63;;;4.46;100.00
58955;BME280;45815;52.334;5.024;2024-02-28T00:51:02;102002.81;;;4.39;100.00
58955;BME280;45815;52.334;5.024;2024-02-28T00:53:28;101997.44;;;4.36;100.00
58955;BME280;45815;52.334;5.024;2024-02-28T00:55:53;102005.84;;;4.32;100.00
58955;BME280;45815;52.334;5.024;2024-02-28T00:58:20;102008.16;;;4.28;100.00
58955;BME280;45815;52.334;5.024;2024-02-28T01:00:47;101992.78;;;4.17;100.00
58955;BME280;45815;52.334;5.024;2024-02-28T01:03:13;102002.78;;;4.25;100.00
58955;BME280;45815;52.334;5.024;2024-02-28T01:05:40;101999.28;;;4.24;100.00
58955;BME280;45815;52.334;5.024;2024-02-28T01:08:06;102010.44;;;4.23;100.00
58955;BME280;45815;52.334;5.024;2024-02-28T01:10:32;102014.06;;;4.25;100.00
58955;BME280;45815;52.334;5.024;2024-02-28T01:12:57;102019.25;;;4.25;100.00
58955;BME280;45815;52.334;5.024;2024-02-28T01:15:23;102021.06;;;4.26;100.00
58955;BME280;45815;52.334;5.024;2024-02-28T01:17:48;102012.28;;;4.24;100.00
58955;BME280;45815;52.334;5.024;2024-02-28T01:20:13;102012.16;;;4.22;100.00
58955;BME280;45815;52.334;5.024;2024-02-28T01:22:39;102014.75;;;4.22;100.00
58955;BME280;45815;52.334;5.024;2024-02-28T01:25:05;102011.28;;;4.22;100.00
58955;BME280;45815;52.334;5.024;2024-02-28T01:27:32;102008.84;;;4.25;100.00
58955;BME280;45815;52.334;5.024;2024-02-28T01:29:57;101997.47;;;4.23;100.00
58955;BME280;45815;52.334;5.024;2024-02-28T01:32:23;102006.16;;;4.23;100.00
58955;BME280;45815;52.334;5.024;2024-02-28T01:34:48;102006.97;;;4.22;100.00
58955;BME280;45815;52.334;5.024;2024-02-28T01:37:13;102007.97;;;4.25;100.00
58955;BME280;45815;52.334;5.024;2024-02-28T01:39:40;101999.47;;;4.27;100.00
58955;BME280;45815;52.334;5.024;2024-02-28T01:42:05;102000.28;;;4.26;100.00
58955;BME280;45815;52.334;5.024;2024-02-28T01:44:31;101998.66;;;4.28;100.00
58955;BME280;45815;52.334;5.024;2024-02-28T01:46:58;102009.97;;;4.29;100.00
58955;BME280;45815;52.334;5.024;2024-02-28T01:49:24;102005.72;;;4.31;100.00
58955;BME280;45815;52.334;5.024;2024-02-28T01:51:50;101981.97;;;4.25;100.00
58955;BME280;45815;52.334;5.024;2024-02-28T01:54:19;101996.72;;;4.39;100.00
58955;BME280;45815;52.334;5.024;2024-02-28T01:56:46;102005.41;;;4.39;100.00
58955;BME280;45815;52.334;5.024;2024-02-28T01:59:11;102004.13;;;4.33;100.00
58955;BME280;45815;52.334;5.024;2024-02-28T02:01:37;102006.03;;;4.35;100.00
58955;BME280;45815;52.334;5.024;2024-02-28T02:04:03;102005.41;;;4.39;100.00
58955;BME280;45815;52.334;5.024;2024-02-28T02:06:30;102002.81;;;4.39;100.00
58955;BME280;45815;52.334;5.024;2024-02-28T02:08:55;102007.94;;;4.38;100.00
58955;BME280;45815;52.334;5.024;2024-02-28T02:11:21;102005.53;;;4.41;100.00
58955;BME280;45815;52.334;5.024;2024-02-28T02:13:50;102004.00;;;4.44;100.00
58955;BME280;45815;52.334;5.024;2024-02-28T02:16:16;101994.81;;;4.50;100.00
58955;BME280;45815;52.334;5.024;2024-02-28T02:18:42;101989.63;;;4.50;100.00
58955;BME280;45815;52.334;5.024;2024-02-28T02:21:08;101986.31;;;4.52;100.00
58955;BME280;45815;52.334;5.024;2024-02-28T02:23:35;101986.59;;;4.57;100.00
58955;BME280;45815;52.334;5.024;2024-02-28T02:26:04;101980.75;;;4.61;100.00
58955;BME280;45815;52.334;5.024;2024-02-28T02:28:29;101986.94;;;4.63;100.00
58955;BME280;45815;52.334;5.024;2024-02-28T02:30:55;101978.34;;;4.64;100.00
58955;BME280;45815;52.334;5.024;2024-02-28T02:33:20;101989.94;;;4.69;100.00
58955;BME280;45815;52.334;5.024;2024-02-28T02:35:45;101992.72;;;4.72;100.00
58955;BME280;45815;52.334;5.024;2024-02-28T02:38:11;101989.31;;;4.73;100.00
58955;BME280;45815;52.334;5.024;2024-02-28T02:40:36;101992.94;;;4.75;100.00
58955;BME280;45815;52.334;5.024;2024-02-28T02:43:02;101993.09;;;4.78;100.00
58955;BME280;45815;52.334;5.024;2024-02-28T02:45:27;101989.88;;;4.82;100.00
58955;BME280;45815;52.334;5.024;2024-02-28T02:47:52;101992.78;;;4.87;100.00
58955;BME280;45815;52.334;5.024;2024-02-28T02:50:18;101997.16;;;4.88;100.00
58955;BME280;45815;52.334;5.024;2024-02-28T02:52:43;101994.81;;;4.93;100.00
58955;BME280;45815;52.334;5.024;2024-02-28T02:55:08;101984.59;;;4.96;100.00
58955;BME280;45815;52.334;5.024;2024-02-28T02:57:35;101986.59;;;5.00;100.00
58955;BME280;45815;52.334;5.024;2024-02-28T03:00:01;101980.75;;;5.04;100.00
58955;BME280;45815;52.334;5.024;2024-02-28T03:02:26;101981.84;;;5.07;100.00
58955;BME280;45815;52.334;5.024;2024-02-28T03:04:51;101978.50;;;5.10;100.00
58955;BME280;45815;52.334;5.024;2024-02-28T03:07:17;101986.31;;;5.10;100.00
58955;BME280;45815;52.334;5.024;2024-02-28T03:09:42;101986.31;;;5.10;100.00
58955;BME280;45815;52.334;5.024;2024-02-28T03:12:07;101988.31;;;5.14;100.00
58955;BME280;45815;52.334;5.024;2024-02-28T03:14:35;101967.81;;;5.05;100.00
58955;BME280;45815;52.334;5.024;2024-02-28T03:17:00;101982.47;;;5.18;100.00
58955;BME280;45815;52.334;5.024;2024-02-28T03:19:25;101983.47;;;5.20;100.00
58955;BME280;45815;52.334;5.024;2024-02-28T03:21:51;101981.88;;;5.22;100.00
58955;BME280;45815;52.334;5.024;2024-02-28T03:24:16;101978.44;;;5.23;100.00
58955;BME280;45815;52.334;5.024;2024-02-28T03:26:42;101980.88;;;5.20;100.00
58955;BME280;45815;52.334;5.024;2024-02-28T03:29:08;101974.66;;;5.18;100.00
58955;BME280;45815;52.334;5.024;2024-02-28T03:31:34;101975.84;;;5.23;100.00
58955;BME280;45815;52.334;5.024;2024-02-28T03:33:59;101979.16;;;5.21;100.00
58955;BME280;45815;52.334;5.024;2024-02-28T03:36:24;101975.84;;;5.23;100.00
58955;BME280;45815;52.334;5.024;2024-02-28T03:38:50;101969.47;;;5.18;100.00
58955;BME280;45815;52.334;5.024;2024-02-28T03:41:15;101967.75;;;5.19;100.00
58955;BME280;45815;52.334;5.024;2024-02-28T03:43:41;101969.63;;;5.21;100.00
58955;BME280;45815;52.334;5.024;2024-02-28T03:46:06;101964.97;;;5.16;100.00
58955;BME280;45815;52.334;5.024;2024-02-28T03:48:31;101977.88;;;5.14;100.00
58955;BME280;45815;52.334;5.024;2024-02-28T03:50:57;101973.69;;;5.16;100.00
58955;BME280;45815;52.334;5.024;2024-02-28T03:53:22;101978.06;;;5.17;100.00
58955;BME280;45815;52.334;5.024;2024-02-28T03:55:48;101983.28;;;5.17;100.00
58955;BME280;45815;52.334;5.024;2024-02-28T03:58:15;101976.84;;;5.11;100.00
58955;BME280;45815;52.334;5.024;2024-02-28T04:00:40;101987.50;;;5.15;100.00
58955;BME280;45815;52.334;5.024;2024-02-28T04:03:05;101986.53;;;5.13;100.00
58955;BME280;45815;52.334;5.024;2024-02-28T04:05:31;101977.69;;;4.96;100.00
58955;BME280;45815;52.334;5.024;2024-02-28T04:07:57;101975.91;;;4.95;100.00
58955;BME280;45815;52.334;5.024;2024-02-28T04:10:22;101983.25;;;5.02;100.00
58955;BME280;45815;52.334;5.024;2024-02-28T04:12:47;101984.16;;;5.03;100.00
58955;BME280;45815;52.334;5.024;2024-02-28T04:15:14;101981.47;;;5.01;100.00
58955;BME280;45815;52.334;5.024;2024-02-28T04:17:39;101979.78;;;5.02;100.00
58955;BME280;45815;52.334;5.024;2024-02-28T04:20:09;101984.97;;;5.02;100.00
58955;BME280;45815;52.334;5.024;2024-02-28T04:22:35;101986.59;;;5.00;100.00
58955;BME280;45815;52.334;5.024;2024-02-28T04:25:00;101992.78;;;5.02;100.00
58955;BME280;45815;52.334;5.024;2024-02-28T04:27:26;101994.56;;;5.03;100.00
58955;BME280;45815;52.334;5.024;2024-02-28T04:29:51;101991.34;;;5.07;100.00
58955;BME280;45815;52.334;5.024;2024-02-28T04:32:16;101986.97;;;5.06;100.00
58955;BME280;45815;52.334;5.024;2024-02-28T04:34:42;101994.56;;;5.03;100.00
58955;BME280;45815;52.334;5.024;2024-02-28T04:37:07;102003.19;;;5.02;100.00
58955;BME280;45815;52.334;5.024;2024-02-28T04:39:32;101998.00;;;5.02;100.00
58955;BME280;45815;52.334;5.024;2024-02-28T04:41:58;102008.56;;;5.05;100.00
58955;BME280;45815;52.334;5.024;2024-02-28T04:44:23;102010.38;;;5.06;100.00
58955;BME280;45815;52.334;5.024;2024-02-28T04:46:48;101999.97;;;5.06;100.00
58955;BME280;45815;52.334;5.024;2024-02-28T04:49:14;102005.19;;;5.06;100.00
58955;BME280;45815;52.334;5.024;2024-02-28T04:51:39;102008.78;;;5.08;100.00
58955;BME280;45815;52.334;5.024;2024-02-28T04:54:04;102009.66;;;5.08;100.00
58955;BME280;45815;52.334;5.024;2024-02-28T04:56:30;102007.25;;;5.12;100.00
58955;BME280;45815;52.334;5.024;2024-02-28T04:58:55;102013.34;;;5.12;100.00
58955;BME280;45815;52.334;5.024;2024-02-28T05:01:21;102011.81;;;5.16;100.00
58955;BME280;45815;52.334;5.024;2024-02-28T05:03:46;102012.72;;;5.16;100.00
58955;BME280;45815;52.334;5.024;2024-02-28T05:06:11;102009.50;;;5.20;100.00
58955;BME280;45815;52.334;5.024;2024-02-28T05:08:40;102011.50;;;5.24;100.00
58955;BME280;45815;52.334;5.024;2024-02-28T05:11:05;102006.44;;;5.27;100.00
58955;BME280;45815;52.334;5.024;2024-02-28T05:13:30;102010.84;;;5.28;100.00
58955;BME280;45815;52.334;5.024;2024-02-28T05:15:56;102007.44;;;5.29;100.00
58955;BME280;45815;52.334;5.024;2024-02-28T05:18:22;102016.25;;;5.32;100.00
58955;BME280;45815;52.334;5.024;2024-02-28T05:20:47;102024.22;;;5.35;100.00
58955;BME280;45815;52.334;5.024;2024-02-28T05:23:12;102026.00;;;5.36;100.00
58955;BME280;45815;52.334;5.024;2024-02-28T05:25:38;102003.22;;;5.32;100.00
58955;BME280;45815;52.334;5.024;2024-02-28T05:28:04;102011.81;;;5.45;100.00
58955;BME280;45815;52.334;5.024;2024-02-28T05:30:29;102020.47;;;5.44;100.00
58955;BME280;45815;52.334;5.024;2024-02-28T05:32:55;102017.94;;;5.46;100.00
58955;BME280;45815;52.334;5.024;2024-02-28T05:35:20;102016.50;;;5.51;100.00
58955;BME280;45815;52.334;5.024;2024-02-28T05:37:45;102011.91;;;5.47;100.00
58955;BME280;45815;52.334;5.024;2024-02-28T05:40:14;102014.69;;;5.50;100.00
58955;BME280;45815;52.334;5.024;2024-02-28T05:42:39;102022.25;;;5.45;100.00
58955;BME280;45815;52.334;5.024;2024-02-28T05:45:06;102023.50;;;5.52;100.00
58955;BME280;45815;52.334;5.024;2024-02-28T05:47:32;102022.72;;;5.53;100.00
58955;BME280;45815;52.334;5.024;2024-02-28T05:49:57;102016.69;;;5.54;100.00
58955;BME280;45815;52.334;5.024;2024-02-28T05:52:24;102023.69;;;5.55;100.00
58955;BME280;45815;52.334;5.024;2024-02-28T05:54:51;102019.28;;;5.54;100.00
58955;BME280;45815;52.334;5.024;2024-02-28T05:57:16;102019.47;;;5.57;100.00
58955;BME280;45815;52.334;5.024;2024-02-28T05:59:42;102020.44;;;5.59;100.00
58955;BME280;45815;52.334;5.024;2024-02-28T06:02:08;102014.44;;;5.60;100.00
58955;BME280;45815;52.334;5.024;2024-02-28T06:04:33;102022.53;;;5.65;100.00
58955;BME280;45815;52.334;5.024;2024-02-28T06:06:59;102020.19;;;5.69;100.00
58955;BME280;45815;52.334;5.024;2024-02-28T06:09:25;102017.59;;;5.69;100.00
58955;BME280;45815;52.334;5.024;2024-02-28T06:11:51;102016.97;;;5.74;100.00
58955;BME280;45815;52.334;5.024;2024-02-28T06:14:16;102017.84;;;5.74;100.00
58955;BME280;45815;52.334;5.024;2024-02-28T06:16:41;102027.72;;;5.80;100.00
58955;BME280;45815;52.334;5.024;2024-02-28T06:19:07;102022.59;;;5.81;100.00
58955;BME280;45815;52.334;5.024;2024-02-28T06:21:32;102020.06;;;5.83;100.00
58955;BME280;45815;52.334;5.024;2024-02-28T06:23:57;102015.41;;;5.77;100.00
58955;BME280;45815;52.334;5.024;2024-02-28T06:26:23;102007.44;;;5.74;100.00
58955;BME280;45815;52.334;5.024;2024-02-28T06:28:48;102027.09;;;5.84;100.00
58955;BME280;45815;52.334;5.024;2024-02-28T06:31:16;102034.28;;;5.88;100.00
58955;BME280;45815;52.334;5.024;2024-02-28T06:33:42;102041.44;;;5.92;100.00
58955;BME280;45815;52.334;5.024;2024-02-28T06:36:08;102033.84;;;5.95;100.00
58955;BME280;45815;52.334;5.024;2024-02-28T06:38:33;102045.06;;;5.94;100.00
58955;BME280;45815;52.334;5.024;2024-02-28T06:41:03;102051.38;;;5.98;100.00
58955;BME280;45815;52.334;5.024;2024-02-28T06:43:30;102035.16;;;5.88;100.00
58955;BME280;45815;52.334;5.024;2024-02-28T06:45:55;102062.84;;;6.01;100.00
58955;BME280;45815;52.334;5.024;2024-02-28T06:48:21;102065.38;;;6.00;100.00
58955;BME280;45815;52.334;5.024;2024-02-28T06:50:46;102072.53;;;6.04;100.00
58955;BME280;45815;52.334;5.024;2024-02-28T06:53:11;102070.91;;;6.06;100.00
58955;BME280;45815;52.334;5.024;2024-02-28T06:55:37;102065.91;;;6.09;100.00
58955;BME280;45815;52.334;5.024;2024-02-28T06:58:02;102066.78;;;6.09;100.00
58955;BME280;45815;52.334;5.024;2024-02-28T07:00:27;102070.47;;;6.13;100.00
58955;BME280;45815;52.334;5.024;2024-02-28T07:02:53;102066.22;;;6.15;100.00
58955;BME280;45815;52.334;5.024;2024-02-28T07:05:18;102066.97;;;6.12;100.00
58955;BME280;45815;52.334;5.024;2024-02-28T07:07:44;102078.63;;;6.19;100.00
58955;BME280;45815;52.334;5.024;2024-02-28T07:10:10;102079.72;;;6.23;100.00
58955;BME280;45815;52.334;5.024;2024-02-28T07:12:35;102079.00;;;6.25;100.00
58955;BME280;45815;52.334;5.024;2024-02-28T07:15:00;102078.44;;;6.31;100.00
58955;BME280;45815;52.334;5.024;2024-02-28T07:17:26;102083.66;;;6.31;100.00
58955;BME280;45815;52.334;5.024;2024-02-28T07:19:51;102076.72;;;6.31;100.00
58955;BME280;45815;52.334;5.024;2024-02-28T07:22:17;102079.31;;;6.31;100.00
58955;BME280;45815;52.334;5.024;2024-02-28T07:24:42;102090.09;;;6.38;100.00
58955;BME280;45815;52.334;5.024;2024-02-28T07:27:08;102098.03;;;6.39;100.00
58955;BME280;45815;52.334;5.024;2024-02-28T07:29:33;102104.66;;;6.34;100.00
58955;BME280;45815;52.334;5.024;2024-02-28T07:31:59;102100.44;;;6.36;100.00
58955;BME280;45815;52.334;5.024;2024-02-28T07:34:26;102106.47;;;6.35;100.00
58955;BME280;45815;52.334;5.024;2024-02-28T07:36:51;102102.06;;;6.34;100.00
58955;BME280;45815;52.334;5.024;2024-02-28T07:39:17;102095.38;;;6.23;100.00
58955;BME280;45815;52.334;5.024;2024-02-28T07:41:42;102096.16;;;6.22;100.00
58955;BME280;45815;52.334;5.024;2024-02-28T07:44:08;102114.13;;;6.32;100.00
58955;BME280;45815;52.334;5.024;2024-02-28T07:46:34;102111.69;;;6.35;100.00
58955;BME280;45815;52.334;5.024;2024-02-28T07:49:00;102121.78;;;6.29;100.00
58955;BME280;45815;52.334;5.024;2024-02-28T07:51:26;102121.03;;;6.31;100.00
58955;BME280;45815;52.334;5.024;2024-02-28T07:53:52;102119.00;;;6.26;100.00
58955;BME280;45815;52.334;5.024;2024-02-28T07:56:18;102122.28;;;6.38;100.00
58955;BME280;45815;52.334;5.024;2024-02-28T07:58:44;102130.28;;;6.41;100.00
58955;BME280;45815;52.334;5.024;2024-02-28T08:01:11;102125.06;;;6.41;100.00
58955;BME280;45815;52.334;5.024;2024-02-28T08:03:37;102128.59;;;6.42;100.00
58955;BME280;45815;52.334;5.024;2024-02-28T08:06:02;102142.78;;;6.47;100.00
58955;BME280;45815;52.334;5.024;2024-02-28T08:08:28;102140.25;;;6.48;100.00
58955;BME280;45815;52.334;5.024;2024-02-28T08:10:53;102143.59;;;6.46;100.00
58955;BME280;45815;52.334;5.024;2024-02-28T08:13:19;102135.03;;;6.48;100.00
58955;BME280;45815;52.334;5.024;2024-02-28T08:15:45;102145.13;;;6.42;100.00
58955;BME280;45815;52.334;5.024;2024-02-28T08:18:10;102138.31;;;6.44;100.00
58955;BME280;45815;52.334;5.024;2024-02-28T08:20:38;102135.84;;;6.47;100.00
58955;BME280;45815;52.334;5.024;2024-02-28T08:23:05;102137.56;;;6.47;100.00
58955;BME280;45815;52.334;5.024;2024-02-28T08:25:30;102149.25;;;6.53;100.00
58955;BME280;45815;52.334;5.024;2024-02-28T08:27:55;102147.63;;;6.55;100.00
58955;BME280;45815;52.334;5.024;2024-02-28T08:30:21;102153.53;;;6.53;100.00
58955;BME280;45815;52.334;5.024;2024-02-28T08:32:47;102162.72;;;6.61;100.00
58955;BME280;45815;52.334;5.024;2024-02-28T08:35:12;102158.56;;;6.65;100.00
58955;BME280;45815;52.334;5.024;2024-02-28T08:37:40;102154.00;;;6.61;100.00
58955;BME280;45815;52.334;5.024;2024-02-28T08:40:07;102163.97;;;6.68;100.00
58955;BME280;45815;52.334;5.024;2024-02-28T08:42:32;102167.56;;;6.70;100.00
58955;BME280;45815;52.334;5.024;2024-02-28T08:44:59;102167.63;;;6.71;100.00
58955;BME280;45815;52.334;5.024;2024-02-28T08:47:25;102163.25;;;6.70;100.00
58955;BME280;45815;52.334;5.024;2024-02-28T08:49:54;102151.41;;;6.61;100.00
58955;BME280;45815;52.334;5.024;2024-02-28T08:52:20;102168.34;;;6.69;100.00
58955;BME280;45815;52.334;5.024;2024-02-28T08:54:46;102173.56;;;6.69;100.00
58955;BME280;45815;52.334;5.024;2024-02-28T08:57:11;102160.72;;;6.72;100.00
58955;BME280;45815;52.334;5.024;2024-02-28T08:59:37;102164.28;;;6.74;100.00
58955;BME280;45815;52.334;5.024;2024-02-28T09:02:02;102161.03;;;6.78;100.00
58955;BME280;45815;52.334;5.024;2024-02-28T09:04:28;102157.06;;;6.85;100.00
58955;BME280;45815;52.334;5.024;2024-02-28T09:06:54;102154.63;;;6.88;100.00
58955;BME280;45815;52.334;5.024;2024-02-28T09:09:19;102158.31;;;6.91;100.00
58955;BME280;45815;52.334;5.024;2024-02-28T09:11:45;102155.75;;;6.93;100.00
58955;BME280;45815;52.334;5.024;2024-02-28T09:14:10;102152.78;;;7.02;100.00
58955;BME280;45815;52.334;5.024;2024-02-28T09:16:35;102150.88;;;6.99;100.00
58955;BME280;45815;52.334;5.024;2024-02-28T09:19:01;102145.75;;;7.01;100.00
58955;BME280;45815;52.334;5.024;2024-02-28T09:21:26;102148.69;;;7.07;100.00
58955;BME280;45815;52.334;5.024;2024-02-28T09:23:52;102154.09;;;7.10;100.00
58955;BME280;45815;52.334;5.024;2024-02-28T09:26:17;102158.75;;;7.15;100.00
58955;BME280;45815;52.334;5.024;2024-02-28T09:28:42;102156.22;;;7.17;100.00
58955;BME280;45815;52.334;5.024;2024-02-28T09:31:08;102144.16;;;7.19;100.00
58955;BME280;45815;52.334;5.024;2024-02-28T09:33:34;102144.94;;;7.18;100.00
58955;BME280;45815;52.334;5.024;2024-02-28T09:36:02;102161.09;;;7.11;100.00
58955;BME280;45815;52.334;5.024;2024-02-28T09:38:27;102163.06;;;7.15;100.00
58955;BME280;45815;52.334;5.024;2024-02-28T09:40:52;102165.84;;;7.18;100.00
58955;BME280;45815;52.334;5.024;2024-02-28T09:43:29;102159.56;;;7.14;100.00
58955;BME280;45815;52.334;5.024;2024-02-28T09:46:03;102166.66;;;7.17;100.00
58955;BME280;45815;52.334;5.024;2024-02-28T09:48:29;102156.38;;;7.20;100.00
58955;BME280;45815;52.334;5.024;2024-02-28T09:50:55;102163.56;;;7.24;100.00
58955;BME280;45815;52.334;5.024;2024-02-28T09:53:21;102169.34;;;7.18;100.00
58955;BME280;45815;52.334;5.024;2024-02-28T09:55:48;102166.09;;;7.23;100.00
58955;BME280;45815;52.334;5.024;2024-02-28T09:58:15;102167.16;;;7.26;100.00
58955;BME280;45815;52.334;5.024;2024-02-28T10:00:42;102165.44;;;7.27;100.00
58955;BME280;45815;52.334;5.024;2024-02-28T10:03:18;102163.81;;;7.29;100.00
58955;BME280;45815;52.334;5.024;2024-02-28T10:05:45;102165.69;;;7.31;100.00
58955;BME280;45815;52.334;5.024;2024-02-28T10:08:11;102159.97;;;7.22;100.00
58955;BME280;45815;52.334;5.024;2024-02-28T10:10:38;102162.59;;;7.22;100.00
58955;BME280;45815;52.334;5.024;2024-02-28T10:13:03;102159.25;;;7.25;100.00
58955;BME280;45815;52.334;5.024;2024-02-28T10:15:30;102155.88;;;7.27;100.00
58955;BME280;45815;52.334;5.024;2024-02-28T10:17:56;102154.16;;;7.28;100.00
58955;BME280;45815;52.334;5.024;2024-02-28T10:20:21;102155.78;;;7.26;100.00
58955;BME280;45815;52.334;5.024;2024-02-28T10:22:47;102166.97;;;7.23;100.00
58955;BME280;45815;52.334;5.024;2024-02-28T10:25:13;102163.88;;;7.30;100.00
58955;BME280;45815;52.334;5.024;2024-02-28T10:27:38;102162.44;;;7.35;100.00
58955;BME280;45815;52.334;5.024;2024-02-28T10:30:05;102160.06;;;7.40;100.00
58955;BME280;45815;52.334;5.024;2024-02-28T10:32:31;102160.97;;;7.40;100.00
58955;BME280;45815;52.334;5.024;2024-02-28T10:34:59;102161.44;;;7.50;100.00
58955;BME280;45815;52.334;5.024;2024-02-28T10:37:27;102155.63;;;7.55;100.00
58955;BME280;45815;52.334;5.024;2024-02-28T10:39:54;102142.34;;;7.51;100.00
58955;BME280;45815;52.334;5.024;2024-02-28T10:42:21;102150.34;;;7.70;100.00
58955;BME280;45815;52.334;5.024;2024-02-28T10:44:48;102148.84;;;7.75;100.00
58955;BME280;45815;52.334;5.024;2024-02-28T10:47:17;102158.06;;;7.85;100.00
58955;BME280;45815;52.334;5.024;2024-02-28T10:49:43;102137.16;;;7.85;100.00
58955;BME280;45815;52.334;5.024;2024-02-28T10:52:11;102155.50;;;8.03;100.00
58955;BME280;45815;52.334;5.024;2024-02-28T10:54:39;102154.28;;;8.14;100.00
58955;BME280;45815;52.334;5.024;2024-02-28T10:57:07;102155.88;;;8.29;100.00
58955;BME280;45815;52.334;5.024;2024-02-28T10:59:35;102152.09;;;8.40;100.00
58955;BME280;45815;52.334;5.024;2024-02-28T11:02:02;102153.66;;;8.54;100.00
58955;BME280;45815;52.334;5.024;2024-02-28T11:04:28;102148.19;;;8.68;100.00
58955;BME280;45815;52.334;5.024;2024-02-28T11:06:55;102140.13;;;8.81;100.00
58955;BME280;45815;52.334;5.024;2024-02-28T11:09:22;102126.47;;;8.88;100.00
58955;BME280;45815;52.334;5.024;2024-02-28T11:11:51;102125.09;;;8.96;100.00
58955;BME280;45815;52.334;5.024;2024-02-28T11:14:18;102132.78;;;9.11;100.00
58955;BME280;45815;52.334;5.024;2024-02-28T11:16:59;102124.59;;;9.23;100.00
58955;BME280;45815;52.334;5.024;2024-02-28T11:19:28;102125.97;;;9.34;100.00
58955;BME280;45815;52.334;5.024;2024-02-28T11:21:54;102122.72;;;9.40;100.00
58955;BME280;45815;52.334;5.024;2024-02-28T11:24:23;102120.00;;;9.38;100.00
58955;BME280;45815;52.334;5.024;2024-02-28T11:26:51;102118.09;;;9.34;100.00
58955;BME280;45815;52.334;5.024;2024-02-28T11:29:24;102119.25;;;9.41;100.00
58955;BME280;45815;52.334;5.024;2024-02-28T11:31:50;102120.56;;;9.50;100.00
58955;BME280;45815;52.334;5.024;2024-02-28T11:34:16;102117.00;;;9.48;100.00
58955;BME280;45815;52.334;5.024;2024-02-28T11:36:41;102119.81;;;9.53;100.00
58955;BME280;45815;52.334;5.024;2024-02-28T11:39:07;102121.66;;;9.56;100.00
58955;BME280;45815;52.334;5.024;2024-02-28T11:41:32;102108.41;;;9.52;100.00
58955;BME280;45815;52.334;5.024;2024-02-28T11:43:58;102107.56;;;9.73;100.00
58955;BME280;45815;52.334;5.024;2024-02-28T11:46:24;102111.66;;;9.87;100.00
58955;BME280;45815;52.334;5.024;2024-02-28T11:48:49;102111.34;;;10.01;100.00
58955;BME280;45815;52.334;5.024;2024-02-28T11:51:15;102110.97;;;10.12;100.00
58955;BME280;45815;52.334;5.024;2024-02-28T11:53:40;102110.78;;;10.29;100.00
58955;BME280;45815;52.334;5.024;2024-02-28T11:56:06;102108.22;;;10.30;100.00
58955;BME280;45815;52.334;5.024;2024-02-28T11:58:33;102105.31;;;10.24;100.00
58955;BME280;45815;52.334;5.024;2024-02-28T12:00:58;102108.81;;;10.25;100.00
58955;BME280;45815;52.334;5.024;2024-02-28T12:03:25;102101.31;;;10.32;100.00
58955;BME280;45815;52.334;5.024;2024-02-28T12:05:52;102103.88;;;10.31;100.00
58955;BME280;45815;52.334;5.024;2024-02-28T12:08:18;102103.09;;;10.33;100.00
58955;BME280;45815;52.334;5.024;2024-02-28T12:10:47;102101.66;;;10.42;100.00
58955;BME280;45815;52.334;5.024;2024-02-28T12:13:19;102100.06;;;10.45;100.00
58955;BME280;45815;52.334;5.024;2024-02-28T12:15:45;102108.00;;;10.47;100.00
58955;BME280;45815;52.334;5.024;2024-02-28T12:18:11;102100.47;;;10.33;100.00
58955;BME280;45815;52.334;5.024;2024-02-28T12:20:36;102091.03;;;10.39;100.00
58955;BME280;45815;52.334;5.024;2024-02-28T12:23:05;102105.91;;;10.38;100.00
58955;BME280;45815;52.334;5.024;2024-02-28T12:25:31;102100.53;;;10.35;100.00
58955;BME280;45815;52.334;5.024;2024-02-28T12:27:56;102104.47;;;10.25;100.00
58955;BME280;45815;52.334;5.024;2024-02-28T12:30:22;102101.16;;;10.08;100.00
58955;BME280;45815;52.334;5.024;2024-02-28T12:32:47;102094.34;;;9.91;100.00
58955;BME280;45815;52.334;5.024;2024-02-28T12:35:13;102086.97;;;9.82;100.00
58955;BME280;45815;52.334;5.024;2024-02-28T12:37:38;102093.63;;;9.74;100.00
58955;BME280;45815;52.334;5.024;2024-02-28T12:40:04;102082.78;;;9.66;100.00
58955;BME280;45815;52.334;5.024;2024-02-28T12:42:33;102083.13;;;9.74;100.00
58955;BME280;45815;52.334;5.024;2024-02-28T12:44:59;102080.72;;;9.79;100.00